Pagina principale
METAR-TAF:

METAR-TAF

Aeroporti :

Wunstorf, Germania

latitudine: 52-27N, longitudine: 009-26E, altezza: 57 m

Osservazione

Il bollettino è stato emesso 1 ora e 7 minuti fa, alle 16:20 UTC
Vento 8 kt da est
Temperature 22°C
Umidità 35%
Pressione 1022 hPa
Visibilità: 6000 m

METAR: ETNW 311620Z AUTO 09008KT 6000 // ////// 22/06 Q1022 ///

Ora: 19:27 (17:27 UTC)

Previsione

Il bollettino è stato emesso 1 ora e 27 minuti fa, alle 16:00 UTC
Previsione valida dal 31 alle 17 UTC al 01 alle 17 UTC
Vento 8 kt da nord-est
Visibilità 10 km o più
Poco nuvoloso ad un'altezza di 5000 ft

TAF: ETNW 311600Z 3117/0117 04008KT 9999 NSW FEW050 BY ETGL

Osservazioni e previsioni meteorologiche di più di 4000 aeroporti (messaggi METAR e TAF).

Le stazioni disponibili sono rappresentate dai dischi gialli e rossi sulla carta.

Puntare il mouse per vedere il nome della stazione.

Clicca sopra per visualizzare le osservazioni e previsioni meteorologiche.

Per cambiare la mappa : fare clic sui pulsanti verdi con una croce nera per ingrandire, il pulsante verde con un trattino per diminuire, o sulla freccia verde per le mappe adiacenti.


METAR-TAF: